Startpagina
METAR-TAF:

METAR-TAF

Vliegvelden :

Vliegbasis Ramstein

Ramstein, Duitsland

breedte: 49-26N, lengte: 007-36E, hoogte: 238 m

Actueel weer

Dit bericht is 14 minuten geleden gemaakt, om 21:56 UTC
Weinig wind
Temperatuur 14°C
Vochtigheid 100%
Druk 1014 hPa
Zicht 10 km of meer
Onbewolkt

METAR: ETAR 162156Z AUTO 00000KT 9999 CLR 14/14 A2993 RMK AO2 SLP132 T01420142 $

Tijdstip: 00:10 (22:10 UTC)

Verwachting

Dit bericht is 4 uur en het 4 minuten geleden gemaakt, om 18:06 UTC
Verwachting geldig van 16 om 18 UTC tot 17 om 24 UTC
Wind 6 kt uit variabele richting
Zicht 10 km of meer
Weinig wolken op 10000 ft
Wijzigt naar
van 17 om 09 UTC tot 17 om 10 UTC
Wind 9 kt uit het westen
Zicht 10 km of meer
Verspreide wolken op 8000 ft

TAF: ETAR 161806Z 1618/1724 VRB06KT 9999 FEW100 QNH2988INS BECMG 1709/1710 28009KT 9999 SCT080 QNH2994INS TX31/1714Z TN11/1704Z

Waarnemingen en weersverwachtingen van meer dan 4000 vliegvelden (METAR en TAF).

De beschikbare stations zijn de gele en rode punten op de kaart.

Ga met uw muis naar het station om de naam te zien.

Klik dan om waarnemingen en weersverwachtingen te zien.

kaart wijzigen: klik op de groene knoppen met een zwart kruis om in te zoomen, op de groene knop met een streepje om uit te zoomen of op de groene pijlen voor aangrenzende kaarten.


METAR-TAF: